Grand Junction, CO

1:17 PM MDT on August 23, 2014 (GMT -0600)
Chipeta Ave south of Washington Park | Change Station
CLOSE
Current Station
Personal Weather Station
Location: Grand Junction, CO
Elevation: 4603 ft
Nearby Weather Stations

Elev 4603 ft 39.07 °N, 108.56 °W | Updated 10 seconds ago

Overcast
Overcast
62.6 °F
Feels Like 62.6 °F
N
1.0
Wind Variable Wind from East
Gusts 2.0 mph

Today
High -- | Low -- °F
--% Chance of Precip.
Yesterday
High -- | Low -- °F
Precip. -- in
6:34 AM 7:58 PM
Waning Crescent, 3% visible
Pressure 29.98 in
Visibility 10.0 miles
Clouds Mostly Cloudy 4000 ft
Overcast 8000 ft
Dew Point 56 °F
Humidity 78%
Rainfall 0.35 in
Snow Depth Not available.
UV 3 out of 12
Pollen 8.30 out of 12
Air Quality Not available.
Flu Activity Not available.
METAR KGJT 231853Z 30003KT 10SM BKN040 OVC080 14/12 A3012 RMK AO2 RAE20 SLP151 P0000 T01440122

More Conditions Fewer Conditions

Pressure 29.98 in
Visibility 10.0 miles
Clouds Mostly Cloudy 4000 ft
Overcast 8000 ft
Dew Point 56 °F
Humidity 78%
Rainfall 0.35 in
Snow Depth Not available.
UV 3 out of 12
Pollen 8.30 out of 12
Air Quality Not available.
Flu Activity Not available.
METAR KGJT 231853Z 30003KT 10SM BKN040 OVC080 14/12 A3012 RMK AO2 RAE20 SLP151 P0000 T01440122

More Conditions Fewer Conditions

10-Day Weather Forecast

Almanac

Astronomy

Aug. 23, 2014 Rise Set
Actual Time 6:34 AM MDT 7:58 PM MDT
Civil Twilight 6:06 AM MDT 8:25 PM MDT
Nautical Twilight 5:33 AM MDT 8:59 PM MDT
Astronomical Twilight 4:57 AM MDT 9:34 PM MDT
Moon 4:54 AM MDT 6:44 PM MDT
Length of Visible Light 14h 19m
Length of Day
13h 23m
Tomorrow will be 2m 21s shorter.
Waning Crescent, 3% of the Moon is Illuminated
Today
Waning Crescent
Aug 25
New
Sep 2
First Quarter
Sep 8
Full
Sep 15
Last Quarter

Today's Extremes

State Highs State Lows

Community

WunderPhotos

Upload Photos

1,746,585 photos uploaded!

WunderBlogs® & News

Nearby

Snow Depth

Station Depth Elevation
Mesa Lakes 0 in 10000 ft
Park Reservoir 0 in 9960 ft
Columbine Pass 0 in 9400 ft
Overland Reservoir 0 in 9880 ft
McClure Pass 0 in 9500 ft

Earthquake Activity

City Distance Mag. Time & Date
No recent earthquake activity has been reported nearby.
Minimum magnitude displayed is 2.5.

Coastal Water Temperatures

Place Temperature
No Stations Reporting

Nearby Weather Stations